createdAt,value
2023-01-09T00:00:14.829Z,100705.78
2023-01-09T00:02:47.149Z,100701.91
2023-01-09T00:05:20.542Z,100716.88
2023-01-09T00:07:51.577Z,100724.25
2023-01-09T00:10:22.340Z,100720.47
2023-01-09T00:12:53.443Z,100719.72
2023-01-09T00:15:24.835Z,100723.66
2023-01-09T00:17:55.509Z,100720.97
2023-01-09T00:20:26.923Z,100724.16
2023-01-09T00:22:58.189Z,100715.69
2023-01-09T00:25:29.142Z,100712.81
2023-01-09T00:28:00.284Z,100708.75
2023-01-09T00:30:31.966Z,100713.63
2023-01-09T00:33:03.277Z,100708.44
2023-01-09T00:35:34.566Z,100702.34
2023-01-09T00:38:06.349Z,100717.19
2023-01-09T00:40:37.401Z,100704.22
2023-01-09T00:43:08.845Z,100702.72
2023-01-09T00:45:40.107Z,100698.19
2023-01-09T00:48:15.908Z,100697.72
2023-01-09T00:50:46.900Z,100694.78
2023-01-09T00:53:20.717Z,100688.91
2023-01-09T00:55:55.491Z,100686.94
2023-01-09T00:58:26.754Z,100689.47
2023-01-09T01:00:58.152Z,100686.03
2023-01-09T01:03:30.202Z,100672.00
2023-01-09T01:06:19.369Z,100679.13
2023-01-09T01:08:50.927Z,100672.63
2023-01-09T01:11:22.144Z,100680.72
2023-01-09T01:13:53.832Z,100679.88
2023-01-09T01:16:24.887Z,100676.94
2023-01-09T01:18:55.944Z,100674.03
2023-01-09T01:21:26.937Z,100688.69
2023-01-09T01:23:57.922Z,100675.88
2023-01-09T01:26:29.138Z,100682.94
2023-01-09T01:29:02.753Z,100684.53
2023-01-09T01:31:33.821Z,100676.47
2023-01-09T01:34:04.512Z,100659.16
2023-01-09T01:36:36.695Z,100646.63
2023-01-09T01:39:08.301Z,100642.16
2023-01-09T01:41:40.358Z,100633.25
2023-01-09T01:44:49.253Z,100626.91
2023-01-09T01:47:21.836Z,100625.75
2023-01-09T01:49:53.681Z,100622.91
2023-01-09T01:52:25.004Z,100616.25
2023-01-09T01:54:55.330Z,100609.22
2023-01-09T01:57:26.823Z,100603.72
2023-01-09T01:59:59.217Z,100599.59
2023-01-09T02:02:32.606Z,100590.25
2023-01-09T02:05:07.840Z,100592.22
2023-01-09T02:07:38.959Z,100589.09
2023-01-09T02:10:09.976Z,100594.84
2023-01-09T02:12:41.068Z,100581.78
2023-01-09T02:15:15.552Z,100600.44
2023-01-09T02:17:55.441Z,100600.97
2023-01-09T02:21:03.615Z,100597.09
2023-01-09T02:23:37.620Z,100593.50
2023-01-09T02:26:27.063Z,100586.84
2023-01-09T02:29:33.114Z,100579.38
2023-01-09T02:32:28.762Z,100573.59
2023-01-09T02:35:11.979Z,100573.19
2023-01-09T02:38:17.993Z,100570.28
2023-01-09T02:40:56.886Z,100580.38
2023-01-09T02:43:28.654Z,100568.84
2023-01-09T02:45:59.704Z,100564.41
2023-01-09T02:48:32.167Z,100569.63
2023-01-09T02:51:17.855Z,100556.53
2023-01-09T02:53:55.420Z,100546.13
2023-01-09T02:56:39.416Z,100548.16
2023-01-09T02:59:24.339Z,100543.41
2023-01-09T03:02:27.656Z,100538.38
2023-01-09T03:05:20.220Z,100534.78
2023-01-09T03:07:59.106Z,100538.50
2023-01-09T03:10:33.155Z,100536.91
2023-01-09T03:13:04.801Z,100534.00
2023-01-09T03:15:39.127Z,100530.47
2023-01-09T03:18:12.359Z,100522.00
2023-01-09T03:20:43.893Z,100523.00
2023-01-09T03:23:15.032Z,100528.06
2023-01-09T03:25:45.738Z,100521.94
2023-01-09T03:28:29.137Z,100516.69
2023-01-09T03:31:00.259Z,100516.34
2023-01-09T03:33:31.456Z,100496.59
2023-01-09T03:36:02.574Z,100513.91
2023-01-09T03:38:33.107Z,100507.97
2023-01-09T03:41:05.473Z,100509.34
2023-01-09T03:43:37.050Z,100508.53
2023-01-09T03:46:08.397Z,100502.44
2023-01-09T03:48:39.509Z,100505.88
2023-01-09T03:51:10.676Z,100487.41
2023-01-09T03:53:42.150Z,100496.19
2023-01-09T03:56:12.823Z,100497.16
2023-01-09T03:58:44.216Z,100493.78
2023-01-09T04:01:15.411Z,100493.69
2023-01-09T04:03:46.889Z,100488.03
2023-01-09T04:06:17.950Z,100479.13
2023-01-09T04:08:49.196Z,100476.22
2023-01-09T04:11:19.607Z,100486.34
2023-01-09T04:13:50.726Z,100476.56
2023-01-09T04:16:21.360Z,100477.38
2023-01-09T04:18:52.205Z,100466.28
2023-01-09T04:21:23.020Z,100472.88
2023-01-09T04:23:53.917Z,100474.50
2023-01-09T04:26:24.512Z,100470.13
2023-01-09T04:28:55.455Z,100467.97
2023-01-09T04:31:27.349Z,100462.06
2023-01-09T04:33:57.850Z,100472.91
2023-01-09T04:36:28.912Z,100461.19
2023-01-09T04:38:59.641Z,100474.47
2023-01-09T04:42:00.587Z,100469.81
2023-01-09T04:44:31.533Z,100469.84
2023-01-09T04:47:02.600Z,100468.53
2023-01-09T04:49:33.699Z,100469.13
2023-01-09T04:52:04.782Z,100467.97
2023-01-09T04:54:35.964Z,100461.78
2023-01-09T04:57:07.303Z,100452.25
2023-01-09T04:59:38.419Z,100473.47
2023-01-09T05:02:09.600Z,100450.72
2023-01-09T05:04:40.977Z,100444.75
2023-01-09T05:07:12.056Z,100448.31
2023-01-09T05:09:43.441Z,100433.34
2023-01-09T05:12:14.626Z,100447.34
2023-01-09T05:14:45.652Z,100449.97
2023-01-09T05:17:17.032Z,100449.25
2023-01-09T05:19:47.751Z,100456.59
2023-01-09T05:22:18.958Z,100459.59
2023-01-09T05:24:49.863Z,100470.03
2023-01-09T05:27:20.812Z,100462.19
2023-01-09T05:29:51.991Z,100458.47
2023-01-09T05:32:22.953Z,100461.56
2023-01-09T05:34:54.795Z,100454.41
2023-01-09T05:37:25.734Z,100466.78
2023-01-09T05:39:56.932Z,100455.63
2023-01-09T05:42:28.444Z,100472.41
2023-01-09T05:44:59.412Z,100469.19
2023-01-09T05:47:30.545Z,100473.47
2023-01-09T05:50:02.088Z,100474.34
2023-01-09T05:52:33.740Z,100464.94
2023-01-09T05:55:04.925Z,100458.66
2023-01-09T05:57:36.378Z,100469.09
2023-01-09T06:00:08.263Z,100477.91
2023-01-09T06:02:39.570Z,100472.41
2023-01-09T06:05:11.805Z,100472.50
2023-01-09T06:07:43.716Z,100475.41
2023-01-09T06:10:16.533Z,100473.81
2023-01-09T06:12:52.226Z,100462.41
2023-01-09T06:15:23.211Z,100469.06
2023-01-09T06:17:54.585Z,100473.72
2023-01-09T06:20:25.708Z,100467.84
2023-01-09T06:22:56.585Z,100465.56
2023-01-09T06:25:27.516Z,100458.81
2023-01-09T06:27:58.449Z,100466.56
2023-01-09T06:30:29.362Z,100470.09
2023-01-09T06:33:00.507Z,100459.78
2023-01-09T06:35:31.480Z,100465.69
2023-01-09T06:38:04.459Z,100467.03
2023-01-09T06:40:35.605Z,100471.38
2023-01-09T06:43:07.451Z,100465.75
2023-01-09T06:45:38.464Z,100474.81
2023-01-09T06:48:09.756Z,100465.16
2023-01-09T06:50:40.898Z,100470.16
2023-01-09T06:53:12.328Z,100464.16
2023-01-09T06:55:43.488Z,100472.91
2023-01-09T06:58:15.033Z,100471.97
2023-01-09T07:00:46.384Z,100467.50
2023-01-09T07:03:22.014Z,100472.50
2023-01-09T07:05:54.418Z,100462.03
2023-01-09T07:08:24.908Z,100477.06
2023-01-09T07:10:56.257Z,100472.22
2023-01-09T07:13:27.198Z,100455.88
2023-01-09T07:15:58.322Z,100470.47
2023-01-09T07:18:33.689Z,100475.97
2023-01-09T07:21:04.928Z,100471.63
2023-01-09T07:23:36.374Z,100467.59
2023-01-09T07:26:06.911Z,100474.41
2023-01-09T07:28:39.115Z,100456.16
2023-01-09T07:31:10.050Z,100461.47
2023-01-09T07:33:41.861Z,100457.94
2023-01-09T07:36:16.743Z,100454.22
2023-01-09T07:39:00.908Z,100462.13
2023-01-09T07:41:32.008Z,100471.34
2023-01-09T07:44:04.430Z,100459.69
2023-01-09T07:46:36.061Z,100460.56
2023-01-09T07:49:06.447Z,100473.13
2023-01-09T07:51:37.397Z,100465.41
2023-01-09T07:54:08.688Z,100473.31
2023-01-09T07:56:39.850Z,100467.66
2023-01-09T07:59:11.031Z,100474.13
2023-01-09T08:01:42.594Z,100464.28
2023-01-09T08:04:13.491Z,100469.31
2023-01-09T08:06:44.482Z,100472.03
2023-01-09T08:09:16.530Z,100468.50
2023-01-09T08:11:47.582Z,100469.28
2023-01-09T08:14:18.418Z,100473.00
2023-01-09T08:16:49.509Z,100461.56
2023-01-09T08:19:20.471Z,100468.19
2023-01-09T08:21:51.261Z,100473.00
2023-01-09T08:24:22.171Z,100468.97
2023-01-09T08:26:53.560Z,100480.78
2023-01-09T08:29:24.618Z,100472.22
2023-01-09T08:31:55.605Z,100473.69
2023-01-09T08:34:26.849Z,100459.50
2023-01-09T08:36:58.412Z,100459.66
2023-01-09T08:39:29.838Z,100470.78
2023-01-09T08:42:18.895Z,100468.63
2023-01-09T08:45:08.643Z,100468.66
2023-01-09T08:47:41.913Z,100475.56
2023-01-09T08:50:12.666Z,100466.84
2023-01-09T08:52:43.779Z,100468.97
2023-01-09T08:55:15.203Z,100475.09
2023-01-09T08:57:53.784Z,100468.78
2023-01-09T09:00:26.497Z,100472.31
2023-01-09T09:03:00.136Z,100460.56
2023-01-09T09:05:32.732Z,100480.38
2023-01-09T09:08:05.095Z,100471.03
2023-01-09T09:10:36.194Z,100471.66
2023-01-09T09:13:07.357Z,100471.97
2023-01-09T09:15:39.521Z,100479.41
2023-01-09T09:18:10.832Z,100466.78
2023-01-09T09:20:42.346Z,100483.72
2023-01-09T09:23:13.505Z,100477.91
2023-01-09T09:25:45.438Z,100481.78
2023-01-09T09:28:16.550Z,100477.41
2023-01-09T09:30:47.656Z,100479.44
2023-01-09T09:33:18.808Z,100469.13
2023-01-09T09:35:50.113Z,100481.03
2023-01-09T09:38:21.333Z,100488.75
2023-01-09T09:41:31.932Z,100482.28
2023-01-09T09:44:53.825Z,100462.75
2023-01-09T09:47:47.349Z,100474.84
2023-01-09T09:50:25.893Z,100472.44
2023-01-09T09:53:13.935Z,100469.22
2023-01-09T09:55:46.705Z,100471.00
2023-01-09T09:58:42.497Z,100458.09
2023-01-09T10:01:18.358Z,100466.75
2023-01-09T10:04:02.169Z,100469.03
2023-01-09T10:07:00.928Z,100464.25
2023-01-09T10:09:39.634Z,100453.22
2023-01-09T10:12:29.033Z,100458.34
2023-01-09T10:15:02.357Z,100455.31
2023-01-09T10:17:57.941Z,100452.53
2023-01-09T10:21:07.632Z,100450.91
2023-01-09T10:23:47.964Z,100451.91
2023-01-09T10:26:34.289Z,100450.66
2023-01-09T10:29:14.821Z,100441.56
2023-01-09T10:32:04.059Z,100453.16
2023-01-09T10:34:55.297Z,100448.22
2023-01-09T10:37:33.850Z,100449.81
2023-01-09T10:40:23.353Z,100450.09
2023-01-09T10:43:06.519Z,100444.66
2023-01-09T10:45:55.836Z,100447.22
2023-01-09T10:48:38.361Z,100442.84
2023-01-09T10:51:22.764Z,100455.41
2023-01-09T10:53:57.716Z,100457.00
2023-01-09T10:56:31.846Z,100452.34
2023-01-09T10:59:03.312Z,100447.50
2023-01-09T11:01:38.980Z,100453.53
2023-01-09T11:04:29.843Z,100452.34
2023-01-09T11:07:19.668Z,100449.31
2023-01-09T11:10:15.040Z,100436.09
2023-01-09T11:12:48.602Z,100444.13
2023-01-09T11:15:25.333Z,100441.88
2023-01-09T11:17:57.033Z,100441.72
2023-01-09T11:20:30.409Z,100437.88
2023-01-09T11:23:01.590Z,100447.81
2023-01-09T11:25:32.958Z,100441.03
2023-01-09T11:28:09.719Z,100444.22
2023-01-09T11:30:58.242Z,100432.75
2023-01-09T11:33:36.744Z,100441.47
2023-01-09T11:36:09.509Z,100437.25
2023-01-09T11:38:57.336Z,100437.25
2023-01-09T11:41:35.949Z,100439.75
2023-01-09T11:44:07.331Z,100440.56
2023-01-09T11:46:45.406Z,100436.41
2023-01-09T11:49:25.428Z,100440.38
2023-01-09T11:52:18.678Z,100438.66
2023-01-09T11:55:06.935Z,100436.88
2023-01-09T11:57:38.062Z,100429.56
2023-01-09T12:00:32.594Z,100431.81
2023-01-09T12:03:08.578Z,100430.94
2023-01-09T12:06:03.376Z,100431.19
2023-01-09T12:08:45.506Z,100425.09
2023-01-09T12:11:34.281Z,100431.81
2023-01-09T12:14:08.130Z,100426.34
2023-01-09T12:16:45.165Z,100422.66
2023-01-09T12:19:27.952Z,100422.25
2023-01-09T12:22:09.036Z,100421.66
2023-01-09T12:24:55.089Z,100414.56
2023-01-09T12:27:58.772Z,100392.16
2023-01-09T12:30:37.466Z,100413.81
2023-01-09T12:33:11.180Z,100414.00
2023-01-09T12:35:53.296Z,100411.19
2023-01-09T12:38:40.050Z,100397.63
2023-01-09T12:41:28.311Z,100401.47
2023-01-09T12:44:05.660Z,100407.47
2023-01-09T12:47:02.735Z,100381.09
2023-01-09T12:49:48.649Z,100398.91
2023-01-09T12:52:28.377Z,100400.31
2023-01-09T12:55:03.443Z,100397.38
2023-01-09T12:57:46.043Z,100392.53
2023-01-09T13:00:43.683Z,100399.50
2023-01-09T13:03:17.835Z,100385.41
2023-01-09T13:05:54.745Z,100381.69
2023-01-09T13:08:50.574Z,100379.06
2023-01-09T13:11:36.425Z,100380.38
2023-01-09T13:14:23.829Z,100379.66
2023-01-09T13:16:57.538Z,100374.81
2023-01-09T13:19:36.600Z,100378.25
2023-01-09T13:22:09.244Z,100376.25
2023-01-09T13:24:51.628Z,100362.69
2023-01-09T13:27:25.191Z,100366.03
2023-01-09T13:30:21.416Z,100363.09
2023-01-09T13:33:01.617Z,100367.63
2023-01-09T13:35:33.370Z,100355.25
2023-01-09T13:38:03.878Z,100356.00
2023-01-09T13:40:36.150Z,100341.84
2023-01-09T13:43:11.419Z,100344.97
2023-01-09T13:45:43.270Z,100339.31
2023-01-09T13:48:19.075Z,100335.06
2023-01-09T13:50:52.446Z,100334.88
2023-01-09T13:53:28.923Z,100336.28
2023-01-09T13:56:00.085Z,100340.75
2023-01-09T13:58:32.902Z,100334.38
2023-01-09T14:01:06.767Z,100325.03
2023-01-09T14:03:39.733Z,100329.09
2023-01-09T14:06:17.413Z,100330.00
2023-01-09T14:08:50.496Z,100324.75
2023-01-09T14:11:22.872Z,100321.16
2023-01-09T14:14:03.247Z,100313.41
2023-01-09T14:16:34.582Z,100309.03
2023-01-09T14:19:06.992Z,100302.09
2023-01-09T14:21:52.546Z,100300.97
2023-01-09T14:24:30.896Z,100301.31
2023-01-09T14:27:03.327Z,100294.94
2023-01-09T14:29:34.207Z,100293.66
2023-01-09T14:32:28.743Z,100280.63
2023-01-09T14:35:00.830Z,100279.38
2023-01-09T14:37:33.659Z,100267.69
2023-01-09T14:40:07.886Z,100268.88
2023-01-09T14:42:42.762Z,100256.97
2023-01-09T14:45:23.445Z,100251.44
2023-01-09T14:47:58.644Z,100250.00
2023-01-09T14:50:47.023Z,100248.50
2023-01-09T14:53:24.990Z,100251.13
2023-01-09T14:56:01.425Z,100241.19
2023-01-09T14:58:37.580Z,100245.56
2023-01-09T15:01:17.980Z,100228.19
2023-01-09T15:04:00.289Z,100232.50
2023-01-09T15:06:34.167Z,100223.91
2023-01-09T15:09:16.375Z,100220.84
2023-01-09T15:11:47.876Z,100232.91
2023-01-09T15:14:32.340Z,100220.59
2023-01-09T15:17:04.362Z,100222.72
2023-01-09T15:19:35.894Z,100226.97
2023-01-09T15:22:08.739Z,100219.19
2023-01-09T15:24:39.881Z,100217.22
2023-01-09T15:27:20.644Z,100213.44
2023-01-09T15:29:53.092Z,100215.94
2023-01-09T15:32:28.235Z,100218.47
2023-01-09T15:34:59.841Z,100213.75
2023-01-09T15:37:37.316Z,100215.44
2023-01-09T15:40:15.626Z,100214.34
2023-01-09T15:43:03.663Z,100211.31
2023-01-09T15:45:42.854Z,100210.91
2023-01-09T15:48:34.406Z,100205.38
2023-01-09T15:51:14.845Z,100207.38
2023-01-09T15:53:49.865Z,100203.44
2023-01-09T15:56:34.975Z,100203.94
2023-01-09T15:59:27.285Z,100187.47
2023-01-09T16:02:32.201Z,100206.47
2023-01-09T16:05:11.815Z,100201.09
2023-01-09T16:07:53.234Z,100191.91
2023-01-09T16:10:36.033Z,100196.56
2023-01-09T16:13:07.912Z,100193.84
2023-01-09T16:15:39.209Z,100182.53
2023-01-09T16:18:34.699Z,100190.00
2023-01-09T16:21:26.849Z,100192.97
2023-01-09T16:24:04.830Z,100183.94
2023-01-09T16:26:36.726Z,100166.16
2023-01-09T16:29:34.586Z,100177.38
2023-01-09T16:32:08.038Z,100177.88
2023-01-09T16:34:39.471Z,100172.53
2023-01-09T16:37:13.187Z,100166.47
2023-01-09T16:39:44.499Z,100171.06
2023-01-09T16:42:33.280Z,100163.88
2023-01-09T16:45:04.379Z,100162.03
2023-01-09T16:47:35.382Z,100166.19
2023-01-09T16:50:06.634Z,100156.91
2023-01-09T16:52:37.833Z,100159.91
2023-01-09T16:55:11.270Z,100167.81
2023-01-09T16:57:43.054Z,100162.56
2023-01-09T17:00:31.812Z,100153.28
2023-01-09T17:03:05.089Z,100146.63
2023-01-09T17:05:36.112Z,100162.34
2023-01-09T17:08:11.642Z,100150.66
2023-01-09T17:10:42.684Z,100150.59
2023-01-09T17:13:13.835Z,100147.53
2023-01-09T17:15:45.071Z,100137.16
2023-01-09T17:18:21.270Z,100139.69
2023-01-09T17:21:00.645Z,100134.00
2023-01-09T17:23:32.064Z,100120.59
2023-01-09T17:26:21.123Z,100132.22
2023-01-09T17:28:53.585Z,100127.97
2023-01-09T17:31:24.897Z,100130.88
2023-01-09T17:33:56.134Z,100124.94
2023-01-09T17:36:33.675Z,100121.50
2023-01-09T17:39:05.543Z,100124.66
2023-01-09T17:41:36.970Z,100117.78
2023-01-09T17:44:07.928Z,100115.53
2023-01-09T17:46:41.352Z,100119.78
2023-01-09T17:49:18.694Z,100116.38
2023-01-09T17:51:49.963Z,100123.66
2023-01-09T17:54:21.446Z,100116.97
2023-01-09T17:56:54.575Z,100111.72
2023-01-09T17:59:27.468Z,100115.66
2023-01-09T18:01:59.034Z,100112.56
2023-01-09T18:04:30.214Z,100117.91
2023-01-09T18:07:01.164Z,100125.25
2023-01-09T18:09:32.596Z,100117.00
2023-01-09T18:12:04.020Z,100122.84
2023-01-09T18:14:35.326Z,100129.31
2023-01-09T18:17:07.775Z,100132.63
2023-01-09T18:19:39.029Z,100126.78
2023-01-09T18:22:10.115Z,100131.41
2023-01-09T18:24:41.676Z,100109.03
2023-01-09T18:27:12.913Z,100125.97
2023-01-09T18:29:44.142Z,100129.41
2023-01-09T18:32:15.299Z,100128.31
2023-01-09T18:34:46.436Z,100129.41
2023-01-09T18:37:17.411Z,100133.41
2023-01-09T18:39:48.744Z,100113.28
2023-01-09T18:42:19.792Z,100122.94
2023-01-09T18:44:51.191Z,100132.94
2023-01-09T18:47:22.410Z,100124.66
2023-01-09T18:49:53.979Z,100131.53
2023-01-09T18:52:26.021Z,100130.00
2023-01-09T18:54:57.506Z,100133.41
2023-01-09T18:57:28.469Z,100135.34
2023-01-09T18:59:59.554Z,100129.19
2023-01-09T19:02:30.677Z,100122.75
2023-01-09T19:05:01.573Z,100127.09
2023-01-09T19:07:33.941Z,100124.34
2023-01-09T19:10:04.769Z,100124.25
2023-01-09T19:12:35.835Z,100121.91
2023-01-09T19:15:12.961Z,100117.00
2023-01-09T19:17:44.018Z,100115.06
2023-01-09T19:20:15.265Z,100113.75
2023-01-09T19:22:46.622Z,100114.28
2023-01-09T19:25:17.948Z,100117.78
2023-01-09T19:27:49.171Z,100114.44
2023-01-09T19:30:20.378Z,100125.47
2023-01-09T19:32:51.330Z,100123.75
2023-01-09T19:35:22.535Z,100123.03
2023-01-09T19:37:53.679Z,100113.75
2023-01-09T19:40:24.573Z,100112.53
2023-01-09T19:42:59.325Z,100119.19
2023-01-09T19:45:30.724Z,100104.97
2023-01-09T19:48:01.788Z,100113.84
2023-01-09T19:50:32.859Z,100111.84
2023-01-09T19:53:03.761Z,100115.56
2023-01-09T19:55:34.690Z,100123.25
2023-01-09T19:58:06.474Z,100116.69
2023-01-09T20:00:38.231Z,100119.13
2023-01-09T20:03:09.603Z,100124.97
2023-01-09T20:05:40.559Z,100123.34
2023-01-09T20:08:12.449Z,100128.91
2023-01-09T20:10:43.317Z,100122.22
2023-01-09T20:13:14.571Z,100123.97
2023-01-09T20:15:46.011Z,100117.66
2023-01-09T20:18:16.767Z,100118.78
2023-01-09T20:20:51.961Z,100111.03
2023-01-09T20:23:23.759Z,100108.31
2023-01-09T20:25:55.414Z,100117.97
2023-01-09T20:28:27.010Z,100122.75
2023-01-09T20:30:58.439Z,100123.56
2023-01-09T20:33:29.544Z,100117.88
2023-01-09T20:36:04.833Z,100120.72
2023-01-09T20:38:35.873Z,100112.78
2023-01-09T20:41:23.983Z,100119.41
2023-01-09T20:44:00.986Z,100115.88
2023-01-09T20:46:34.803Z,100101.53
2023-01-09T20:49:07.977Z,100107.63
2023-01-09T20:51:43.012Z,100109.94
2023-01-09T20:54:15.096Z,100099.63
2023-01-09T20:56:46.529Z,100095.97
2023-01-09T20:59:22.444Z,100092.28
2023-01-09T21:01:54.467Z,100097.00
2023-01-09T21:04:25.837Z,100087.50
2023-01-09T21:06:57.113Z,100091.66
2023-01-09T21:09:28.303Z,100096.50
2023-01-09T21:11:59.386Z,100090.84
2023-01-09T21:14:30.450Z,100098.41
2023-01-09T21:17:01.615Z,100092.66
2023-01-09T21:19:32.978Z,100087.91
2023-01-09T21:22:04.233Z,100082.66
2023-01-09T21:24:35.491Z,100083.97
2023-01-09T21:27:06.827Z,100076.44
2023-01-09T21:29:37.789Z,100071.78
2023-01-09T21:32:08.886Z,100073.19
2023-01-09T21:34:40.263Z,100072.28
2023-01-09T21:37:11.219Z,100073.91
2023-01-09T21:39:42.716Z,100066.75
2023-01-09T21:42:31.529Z,100072.69
2023-01-09T21:45:20.724Z,100071.19
2023-01-09T21:47:51.574Z,100070.38
2023-01-09T21:50:23.020Z,100071.69
2023-01-09T21:52:53.901Z,100069.06
2023-01-09T21:55:24.845Z,100064.63
2023-01-09T21:57:59.265Z,100073.50
2023-01-09T22:00:31.347Z,100070.56
2023-01-09T22:03:02.651Z,100064.53
2023-01-09T22:05:33.516Z,100068.66
2023-01-09T22:08:04.412Z,100063.41
2023-01-09T22:10:35.380Z,100056.97
2023-01-09T22:13:17.574Z,100068.66
2023-01-09T22:15:49.646Z,100062.59
2023-01-09T22:18:21.085Z,100056.06
2023-01-09T22:20:52.197Z,100053.94
2023-01-09T22:23:23.125Z,100052.22
2023-01-09T22:25:54.913Z,100051.19
2023-01-09T22:28:25.655Z,100047.13
2023-01-09T22:30:56.933Z,100036.75
2023-01-09T22:33:27.906Z,100034.44
2023-01-09T22:35:58.923Z,100033.16
2023-01-09T22:38:30.054Z,100032.41
2023-01-09T22:41:01.224Z,100031.91
2023-01-09T22:43:33.135Z,100034.09
2023-01-09T22:46:06.611Z,100029.09
2023-01-09T22:48:37.542Z,100029.88
2023-01-09T22:51:15.324Z,100022.00
2023-01-09T22:53:46.848Z,100020.97
2023-01-09T22:56:20.342Z,100009.47
2023-01-09T22:58:56.286Z,100008.16
2023-01-09T23:01:27.896Z,100012.06
2023-01-09T23:03:59.136Z,100006.88
2023-01-09T23:06:31.028Z,100008.47
2023-01-09T23:09:02.485Z,99988.56
2023-01-09T23:12:12.375Z,99994.47
2023-01-09T23:14:43.483Z,99992.78
2023-01-09T23:17:14.228Z,99993.28
2023-01-09T23:19:45.549Z,99983.66
2023-01-09T23:22:16.646Z,99980.16
2023-01-09T23:24:47.997Z,99975.66
2023-01-09T23:27:19.068Z,99965.75
2023-01-09T23:29:50.050Z,99960.94
2023-01-09T23:32:21.473Z,99963.78
2023-01-09T23:34:52.567Z,99950.47
2023-01-09T23:37:26.945Z,99949.50
2023-01-09T23:39:57.859Z,99946.66
2023-01-09T23:42:47.248Z,99948.72
2023-01-09T23:45:18.649Z,99944.75
2023-01-09T23:47:49.674Z,99932.72
2023-01-09T23:50:21.236Z,99916.47
2023-01-09T23:52:52.362Z,99911.06
2023-01-09T23:55:23.271Z,99914.09
2023-01-09T23:57:57.783Z,99918.44
